sensor_id;sensor_type;location;lat;lon;timestamp;P1;durP1;ratioP1;P2;durP2;ratioP2
41943;SDS011;27636;52.610;13.244;2022-12-29T00:02:08;4.07;;;1.40;;
41943;SDS011;27636;52.610;13.244;2022-12-29T00:07:11;5.53;;;1.98;;
41943;SDS011;27636;52.610;13.244;2022-12-29T00:12:15;4.07;;;1.58;;
41943;SDS011;27636;52.610;13.244;2022-12-29T00:17:19;4.15;;;1.80;;
41943;SDS011;27636;52.610;13.244;2022-12-29T00:22:22;4.27;;;1.70;;
41943;SDS011;27636;52.610;13.244;2022-12-29T00:27:44;4.13;;;1.85;;
41943;SDS011;27636;52.610;13.244;2022-12-29T00:38:35;5.20;;;1.73;;
41943;SDS011;27636;52.610;13.244;2022-12-29T00:44:00;4.65;;;1.98;;
41943;SDS011;27636;52.610;13.244;2022-12-29T00:49:14;4.70;;;1.60;;
41943;SDS011;27636;52.610;13.244;2022-12-29T00:54:33;4.68;;;1.98;;
41943;SDS011;27636;52.610;13.244;2022-12-29T00:59:38;3.50;;;1.50;;
41943;SDS011;27636;52.610;13.244;2022-12-29T01:04:43;4.05;;;1.60;;
41943;SDS011;27636;52.610;13.244;2022-12-29T01:09:46;4.10;;;1.27;;
41943;SDS011;27636;52.610;13.244;2022-12-29T01:15:09;2.33;;;1.15;;
41943;SDS011;27636;52.610;13.244;2022-12-29T01:25:19;3.35;;;1.30;;
41943;SDS011;27636;52.610;13.244;2022-12-29T01:30:23;4.63;;;1.67;;
41943;SDS011;27636;52.610;13.244;2022-12-29T01:35:29;4.25;;;1.58;;
41943;SDS011;27636;52.610;13.244;2022-12-29T01:40:33;7.25;;;1.23;;
41943;SDS011;27636;52.610;13.244;2022-12-29T01:45:36;2.72;;;1.30;;
41943;SDS011;27636;52.610;13.244;2022-12-29T01:50:51;3.40;;;1.52;;
41943;SDS011;27636;52.610;13.244;2022-12-29T01:55:56;3.80;;;1.52;;
41943;SDS011;27636;52.610;13.244;2022-12-29T02:01:03;5.50;;;1.73;;
41943;SDS011;27636;52.610;13.244;2022-12-29T02:06:10;5.13;;;1.73;;
41943;SDS011;27636;52.610;13.244;2022-12-29T02:11:18;4.65;;;1.60;;
41943;SDS011;27636;52.610;13.244;2022-12-29T02:16:29;3.67;;;1.43;;
41943;SDS011;27636;52.610;13.244;2022-12-29T02:21:47;6.97;;;1.75;;
41943;SDS011;27636;52.610;13.244;2022-12-29T02:27:04;3.72;;;1.48;;
41943;SDS011;27636;52.610;13.244;2022-12-29T02:32:28;7.28;;;1.40;;
41943;SDS011;27636;52.610;13.244;2022-12-29T02:37:40;3.60;;;1.65;;
41943;SDS011;27636;52.610;13.244;2022-12-29T02:42:47;3.85;;;1.48;;
41943;SDS011;27636;52.610;13.244;2022-12-29T02:47:56;4.57;;;1.60;;
41943;SDS011;27636;52.610;13.244;2022-12-29T02:53:04;8.13;;;1.63;;
41943;SDS011;27636;52.610;13.244;2022-12-29T02:58:15;1.38;;;0.90;;
41943;SDS011;27636;52.610;13.244;2022-12-29T03:03:22;4.68;;;1.40;;
41943;SDS011;27636;52.610;13.244;2022-12-29T03:08:39;3.08;;;1.48;;
41943;SDS011;27636;52.610;13.244;2022-12-29T03:13:51;3.72;;;1.55;;
41943;SDS011;27636;52.610;13.244;2022-12-29T03:19:23;2.97;;;1.30;;
41943;SDS011;27636;52.610;13.244;2022-12-29T03:24:29;5.28;;;1.60;;
41943;SDS011;27636;52.610;13.244;2022-12-29T03:29:35;3.65;;;1.42;;
41943;SDS011;27636;52.610;13.244;2022-12-29T03:34:43;3.22;;;1.55;;
41943;SDS011;27636;52.610;13.244;2022-12-29T03:39:47;3.92;;;1.88;;
41943;SDS011;27636;52.610;13.244;2022-12-29T03:44:53;3.30;;;1.17;;
41943;SDS011;27636;52.610;13.244;2022-12-29T03:50:00;4.65;;;1.40;;
41943;SDS011;27636;52.610;13.244;2022-12-29T03:55:07;5.13;;;1.35;;
41943;SDS011;27636;52.610;13.244;2022-12-29T04:05:24;3.15;;;1.33;;
41943;SDS011;27636;52.610;13.244;2022-12-29T04:10:30;2.22;;;1.20;;
41943;SDS011;27636;52.610;13.244;2022-12-29T04:15:35;3.13;;;1.30;;
41943;SDS011;27636;52.610;13.244;2022-12-29T04:20:40;5.93;;;1.50;;
41943;SDS011;27636;52.610;13.244;2022-12-29T04:26:03;3.30;;;1.17;;
41943;SDS011;27636;52.610;13.244;2022-12-29T04:31:13;3.97;;;1.08;;
41943;SDS011;27636;52.610;13.244;2022-12-29T04:36:20;3.55;;;1.45;;
41943;SDS011;27636;52.610;13.244;2022-12-29T04:41:31;4.80;;;1.50;;
41943;SDS011;27636;52.610;13.244;2022-12-29T04:46:36;3.15;;;1.38;;
41943;SDS011;27636;52.610;13.244;2022-12-29T04:51:46;3.72;;;1.60;;
41943;SDS011;27636;52.610;13.244;2022-12-29T04:56:51;4.95;;;1.48;;
41943;SDS011;27636;52.610;13.244;2022-12-29T05:01:54;2.33;;;1.40;;
41943;SDS011;27636;52.610;13.244;2022-12-29T05:06:59;3.33;;;1.40;;
41943;SDS011;27636;52.610;13.244;2022-12-29T05:17:08;2.83;;;1.25;;
41943;SDS011;27636;52.610;13.244;2022-12-29T05:22:12;1.90;;;1.15;;
41943;SDS011;27636;52.610;13.244;2022-12-29T05:27:19;2.50;;;1.35;;
41943;SDS011;27636;52.610;13.244;2022-12-29T05:37:48;2.90;;;1.33;;
41943;SDS011;27636;52.610;13.244;2022-12-29T05:42:52;2.45;;;1.20;;
41943;SDS011;27636;52.610;13.244;2022-12-29T05:48:15;4.28;;;1.25;;
41943;SDS011;27636;52.610;13.244;2022-12-29T05:53:29;2.92;;;1.23;;
41943;SDS011;27636;52.610;13.244;2022-12-29T05:58:32;10.10;;;2.95;;
41943;SDS011;27636;52.610;13.244;2022-12-29T06:03:36;3.17;;;1.30;;
41943;SDS011;27636;52.610;13.244;2022-12-29T06:08:47;4.45;;;1.30;;
41943;SDS011;27636;52.610;13.244;2022-12-29T06:13:51;3.45;;;1.33;;
41943;SDS011;27636;52.610;13.244;2022-12-29T06:18:54;3.25;;;1.23;;
41943;SDS011;27636;52.610;13.244;2022-12-29T06:23:59;3.65;;;1.48;;
41943;SDS011;27636;52.610;13.244;2022-12-29T06:29:03;3.75;;;1.40;;
41943;SDS011;27636;52.610;13.244;2022-12-29T06:34:07;3.70;;;1.33;;
41943;SDS011;27636;52.610;13.244;2022-12-29T06:39:13;3.78;;;1.30;;
41943;SDS011;27636;52.610;13.244;2022-12-29T06:44:23;4.57;;;1.55;;
41943;SDS011;27636;52.610;13.244;2022-12-29T06:49:36;2.92;;;1.20;;
41943;SDS011;27636;52.610;13.244;2022-12-29T06:54:40;2.10;;;1.00;;
41943;SDS011;27636;52.610;13.244;2022-12-29T06:59:44;6.43;;;1.53;;
41943;SDS011;27636;52.610;13.244;2022-12-29T07:04:47;3.05;;;1.02;;
41943;SDS011;27636;52.610;13.244;2022-12-29T07:09:51;3.72;;;1.33;;
41943;SDS011;27636;52.610;13.244;2022-12-29T07:14:55;4.43;;;1.50;;
41943;SDS011;27636;52.610;13.244;2022-12-29T07:19:58;4.32;;;1.42;;
41943;SDS011;27636;52.610;13.244;2022-12-29T07:25:02;3.72;;;1.27;;
41943;SDS011;27636;52.610;13.244;2022-12-29T07:35:10;2.67;;;1.20;;
41943;SDS011;27636;52.610;13.244;2022-12-29T07:40:14;2.17;;;0.82;;
41943;SDS011;27636;52.610;13.244;2022-12-29T07:45:18;1.75;;;1.10;;
41943;SDS011;27636;52.610;13.244;2022-12-29T07:50:37;2.25;;;1.10;;
41943;SDS011;27636;52.610;13.244;2022-12-29T07:55:42;3.47;;;1.20;;
41943;SDS011;27636;52.610;13.244;2022-12-29T08:00:45;2.60;;;1.07;;
41943;SDS011;27636;52.610;13.244;2022-12-29T08:05:48;3.15;;;1.20;;
41943;SDS011;27636;52.610;13.244;2022-12-29T08:10:53;4.47;;;1.30;;
41943;SDS011;27636;52.610;13.244;2022-12-29T08:15:57;1.75;;;1.08;;
41943;SDS011;27636;52.610;13.244;2022-12-29T08:21:01;2.70;;;1.30;;
41943;SDS011;27636;52.610;13.244;2022-12-29T08:26:06;4.80;;;1.55;;
41943;SDS011;27636;52.610;13.244;2022-12-29T08:31:10;2.97;;;1.10;;
41943;SDS011;27636;52.610;13.244;2022-12-29T08:36:14;2.43;;;1.20;;
41943;SDS011;27636;52.610;13.244;2022-12-29T08:41:20;3.72;;;1.50;;
41943;SDS011;27636;52.610;13.244;2022-12-29T08:46:23;2.17;;;1.00;;
41943;SDS011;27636;52.610;13.244;2022-12-29T08:51:26;6.63;;;1.35;;
41943;SDS011;27636;52.610;13.244;2022-12-29T08:56:31;3.78;;;1.52;;
41943;SDS011;27636;52.610;13.244;2022-12-29T09:01:35;2.55;;;1.17;;
41943;SDS011;27636;52.610;13.244;2022-12-29T09:06:39;6.18;;;1.55;;
41943;SDS011;27636;52.610;13.244;2022-12-29T09:11:44;3.67;;;1.27;;
41943;SDS011;27636;52.610;13.244;2022-12-29T09:16:47;3.35;;;1.30;;
41943;SDS011;27636;52.610;13.244;2022-12-29T09:22:11;1.65;;;1.00;;
41943;SDS011;27636;52.610;13.244;2022-12-29T09:27:16;2.67;;;1.02;;
41943;SDS011;27636;52.610;13.244;2022-12-29T09:32:19;2.38;;;1.10;;
41943;SDS011;27636;52.610;13.244;2022-12-29T09:37:25;3.70;;;0.93;;
41943;SDS011;27636;52.610;13.244;2022-12-29T09:42:32;5.85;;;1.25;;
41943;SDS011;27636;52.610;13.244;2022-12-29T09:47:41;5.30;;;1.00;;
41943;SDS011;27636;52.610;13.244;2022-12-29T09:52:48;2.83;;;0.98;;
41943;SDS011;27636;52.610;13.244;2022-12-29T09:57:56;2.28;;;0.80;;
41943;SDS011;27636;52.610;13.244;2022-12-29T10:03:04;5.13;;;0.95;;
41943;SDS011;27636;52.610;13.244;2022-12-29T10:08:23;1.92;;;0.90;;
41943;SDS011;27636;52.610;13.244;2022-12-29T10:13:36;1.15;;;0.90;;
41943;SDS011;27636;52.610;13.244;2022-12-29T10:18:59;3.88;;;1.42;;
41943;SDS011;27636;52.610;13.244;2022-12-29T10:24:12;2.17;;;1.00;;
41943;SDS011;27636;52.610;13.244;2022-12-29T10:29:18;4.32;;;1.42;;
41943;SDS011;27636;52.610;13.244;2022-12-29T10:34:23;2.05;;;1.05;;
41943;SDS011;27636;52.610;13.244;2022-12-29T10:39:30;1.50;;;0.80;;
41943;SDS011;27636;52.610;13.244;2022-12-29T10:44:38;1.65;;;0.80;;
41943;SDS011;27636;52.610;13.244;2022-12-29T10:49:42;2.70;;;1.42;;
41943;SDS011;27636;52.610;13.244;2022-12-29T10:54:49;2.45;;;0.80;;
41943;SDS011;27636;52.610;13.244;2022-12-29T10:59:58;1.13;;;0.70;;
41943;SDS011;27636;52.610;13.244;2022-12-29T11:05:02;3.55;;;1.10;;
41943;SDS011;27636;52.610;13.244;2022-12-29T11:10:16;1.88;;;0.82;;
41943;SDS011;27636;52.610;13.244;2022-12-29T11:15:23;3.55;;;1.02;;
41943;SDS011;27636;52.610;13.244;2022-12-29T11:20:27;2.08;;;0.80;;
41943;SDS011;27636;52.610;13.244;2022-12-29T11:25:33;2.15;;;0.75;;
41943;SDS011;27636;52.610;13.244;2022-12-29T11:30:38;2.25;;;0.90;;
41943;SDS011;27636;52.610;13.244;2022-12-29T11:35:42;2.88;;;0.65;;
41943;SDS011;27636;52.610;13.244;2022-12-29T11:40:46;2.03;;;0.73;;
41943;SDS011;27636;52.610;13.244;2022-12-29T11:45:51;2.17;;;1.00;;
41943;SDS011;27636;52.610;13.244;2022-12-29T11:50:57;1.60;;;0.70;;
41943;SDS011;27636;52.610;13.244;2022-12-29T11:56:04;1.45;;;0.63;;
41943;SDS011;27636;52.610;13.244;2022-12-29T12:01:13;3.00;;;1.02;;
41943;SDS011;27636;52.610;13.244;2022-12-29T12:06:20;2.38;;;0.90;;
41943;SDS011;27636;52.610;13.244;2022-12-29T12:11:27;1.60;;;0.75;;
41943;SDS011;27636;52.610;13.244;2022-12-29T12:16:42;1.67;;;0.80;;
41943;SDS011;27636;52.610;13.244;2022-12-29T12:21:50;1.73;;;0.90;;
41943;SDS011;27636;52.610;13.244;2022-12-29T12:26:59;2.80;;;0.73;;
41943;SDS011;27636;52.610;13.244;2022-12-29T12:32:09;1.95;;;0.80;;
41943;SDS011;27636;52.610;13.244;2022-12-29T12:37:27;0.98;;;0.60;;
41943;SDS011;27636;52.610;13.244;2022-12-29T12:42:55;2.53;;;1.00;;
41943;SDS011;27636;52.610;13.244;2022-12-29T12:48:14;1.20;;;0.70;;
41943;SDS011;27636;52.610;13.244;2022-12-29T12:53:32;5.57;;;0.77;;
41943;SDS011;27636;52.610;13.244;2022-12-29T12:58:43;2.85;;;0.98;;
41943;SDS011;27636;52.610;13.244;2022-12-29T13:03:59;0.73;;;0.57;;
41943;SDS011;27636;52.610;13.244;2022-12-29T13:09:22;0.52;;;0.52;;
41943;SDS011;27636;52.610;13.244;2022-12-29T13:14:40;0.45;;;0.45;;
41943;SDS011;27636;52.610;13.244;2022-12-29T13:19:54;3.33;;;1.40;;
41943;SDS011;27636;52.610;13.244;2022-12-29T13:25:07;1.65;;;0.50;;
41943;SDS011;27636;52.610;13.244;2022-12-29T13:30:22;1.60;;;0.63;;
41943;SDS011;27636;52.610;13.244;2022-12-29T13:35:46;0.60;;;0.50;;
41943;SDS011;27636;52.610;13.244;2022-12-29T13:40:59;2.80;;;0.68;;
41943;SDS011;27636;52.610;13.244;2022-12-29T13:46:06;0.60;;;0.60;;
41943;SDS011;27636;52.610;13.244;2022-12-29T13:51:14;2.28;;;1.00;;
41943;SDS011;27636;52.610;13.244;2022-12-29T13:56:26;3.00;;;0.70;;
41943;SDS011;27636;52.610;13.244;2022-12-29T14:01:37;1.73;;;0.70;;
41943;SDS011;27636;52.610;13.244;2022-12-29T14:06:46;1.73;;;0.75;;
41943;SDS011;27636;52.610;13.244;2022-12-29T14:12:01;1.13;;;0.60;;
41943;SDS011;27636;52.610;13.244;2022-12-29T14:17:21;2.28;;;0.93;;
41943;SDS011;27636;52.610;13.244;2022-12-29T14:22:26;2.58;;;1.13;;
41943;SDS011;27636;52.610;13.244;2022-12-29T14:27:51;1.65;;;0.85;;
41943;SDS011;27636;52.610;13.244;2022-12-29T14:33:02;2.00;;;0.80;;
41943;SDS011;27636;52.610;13.244;2022-12-29T14:43:56;1.75;;;0.98;;
41943;SDS011;27636;52.610;13.244;2022-12-29T14:49:02;3.22;;;1.10;;
41943;SDS011;27636;52.610;13.244;2022-12-29T14:59:44;1.25;;;0.70;;
41943;SDS011;27636;52.610;13.244;2022-12-29T15:04:48;1.55;;;0.55;;
41943;SDS011;27636;52.610;13.244;2022-12-29T15:09:56;0.65;;;0.50;;
41943;SDS011;27636;52.610;13.244;2022-12-29T15:15:13;6.00;;;1.00;;
41943;SDS011;27636;52.610;13.244;2022-12-29T15:20:23;1.38;;;0.90;;
41943;SDS011;27636;52.610;13.244;2022-12-29T15:25:29;1.83;;;0.85;;
41943;SDS011;27636;52.610;13.244;2022-12-29T15:58:19;7.20;;;2.47;;
41943;SDS011;27636;52.610;13.244;2022-12-29T16:03:26;3.55;;;1.60;;
41943;SDS011;27636;52.610;13.244;2022-12-29T16:08:34;6.22;;;1.65;;
41943;SDS011;27636;52.610;13.244;2022-12-29T16:13:39;3.65;;;1.40;;
41943;SDS011;27636;52.610;13.244;2022-12-29T16:18:44;3.72;;;1.40;;
41943;SDS011;27636;52.610;13.244;2022-12-29T16:23:52;3.70;;;1.63;;
41943;SDS011;27636;52.610;13.244;2022-12-29T16:28:58;8.02;;;2.30;;
41943;SDS011;27636;52.610;13.244;2022-12-29T16:34:10;9.07;;;3.00;;
41943;SDS011;27636;52.610;13.244;2022-12-29T16:39:20;7.32;;;2.50;;
41943;SDS011;27636;52.610;13.244;2022-12-29T16:44:29;7.32;;;2.45;;
41943;SDS011;27636;52.610;13.244;2022-12-29T16:49:34;6.33;;;2.07;;
41943;SDS011;27636;52.610;13.244;2022-12-29T16:54:39;10.03;;;2.73;;
41943;SDS011;27636;52.610;13.244;2022-12-29T16:59:43;7.47;;;2.95;;
41943;SDS011;27636;52.610;13.244;2022-12-29T17:04:46;5.55;;;1.90;;
41943;SDS011;27636;52.610;13.244;2022-12-29T17:09:53;4.35;;;1.70;;
41943;SDS011;27636;52.610;13.244;2022-12-29T17:14:57;6.07;;;1.55;;
41943;SDS011;27636;52.610;13.244;2022-12-29T17:25:10;15.68;;;1.38;;
41943;SDS011;27636;52.610;13.244;2022-12-29T17:30:15;3.63;;;1.42;;
41943;SDS011;27636;52.610;13.244;2022-12-29T17:40:25;4.60;;;1.33;;
41943;SDS011;27636;52.610;13.244;2022-12-29T17:45:31;5.40;;;1.35;;
41943;SDS011;27636;52.610;13.244;2022-12-29T17:50:34;2.70;;;1.10;;
41943;SDS011;27636;52.610;13.244;2022-12-29T17:55:39;3.72;;;0.98;;
41943;SDS011;27636;52.610;13.244;2022-12-29T18:00:43;2.38;;;1.00;;
41943;SDS011;27636;52.610;13.244;2022-12-29T18:05:47;1.40;;;0.80;;
41943;SDS011;27636;52.610;13.244;2022-12-29T18:10:53;2.53;;;0.90;;
41943;SDS011;27636;52.610;13.244;2022-12-29T18:15:57;3.70;;;0.77;;
41943;SDS011;27636;52.610;13.244;2022-12-29T18:21:01;4.55;;;1.10;;
41943;SDS011;27636;52.610;13.244;2022-12-29T18:26:06;5.03;;;1.15;;
41943;SDS011;27636;52.610;13.244;2022-12-29T18:31:18;2.42;;;0.88;;
41943;SDS011;27636;52.610;13.244;2022-12-29T18:36:23;6.05;;;0.98;;
41943;SDS011;27636;52.610;13.244;2022-12-29T18:41:28;2.65;;;1.00;;
41943;SDS011;27636;52.610;13.244;2022-12-29T18:46:31;4.65;;;1.13;;
41943;SDS011;27636;52.610;13.244;2022-12-29T18:51:35;3.60;;;1.00;;
41943;SDS011;27636;52.610;13.244;2022-12-29T18:56:39;5.68;;;1.00;;
41943;SDS011;27636;52.610;13.244;2022-12-29T19:01:43;3.95;;;1.35;;
41943;SDS011;27636;52.610;13.244;2022-12-29T19:06:46;2.00;;;0.80;;
41943;SDS011;27636;52.610;13.244;2022-12-29T19:11:51;2.35;;;1.50;;
41943;SDS011;27636;52.610;13.244;2022-12-29T19:16:54;2.83;;;1.13;;
41943;SDS011;27636;52.610;13.244;2022-12-29T19:21:57;2.45;;;1.20;;
41943;SDS011;27636;52.610;13.244;2022-12-29T19:27:02;2.97;;;1.10;;
41943;SDS011;27636;52.610;13.244;2022-12-29T19:32:05;0.73;;;0.70;;
41943;SDS011;27636;52.610;13.244;2022-12-29T19:37:09;3.97;;;1.20;;
41943;SDS011;27636;52.610;13.244;2022-12-29T19:42:13;6.18;;;1.30;;
41943;SDS011;27636;52.610;13.244;2022-12-29T19:47:16;3.07;;;0.93;;
41943;SDS011;27636;52.610;13.244;2022-12-29T19:52:23;3.05;;;1.15;;
41943;SDS011;27636;52.610;13.244;2022-12-29T19:57:29;4.07;;;1.02;;
41943;SDS011;27636;52.610;13.244;2022-12-29T20:07:36;3.08;;;1.13;;
41943;SDS011;27636;52.610;13.244;2022-12-29T20:12:41;6.80;;;3.05;;
41943;SDS011;27636;52.610;13.244;2022-12-29T20:17:44;8.47;;;2.60;;
41943;SDS011;27636;52.610;13.244;2022-12-29T20:23:08;4.45;;;1.70;;
41943;SDS011;27636;52.610;13.244;2022-12-29T20:28:12;4.65;;;1.33;;
41943;SDS011;27636;52.610;13.244;2022-12-29T20:33:17;7.25;;;2.40;;
41943;SDS011;27636;52.610;13.244;2022-12-29T20:38:20;3.60;;;1.33;;
41943;SDS011;27636;52.610;13.244;2022-12-29T20:43:25;3.90;;;1.98;;
41943;SDS011;27636;52.610;13.244;2022-12-29T20:48:28;4.73;;;1.20;;
41943;SDS011;27636;52.610;13.244;2022-12-29T20:53:32;3.47;;;1.38;;
41943;SDS011;27636;52.610;13.244;2022-12-29T20:58:37;3.42;;;1.38;;
41943;SDS011;27636;52.610;13.244;2022-12-29T21:04:00;3.35;;;1.75;;
41943;SDS011;27636;52.610;13.244;2022-12-29T21:09:04;5.32;;;1.73;;
41943;SDS011;27636;52.610;13.244;2022-12-29T21:14:09;3.42;;;1.20;;
41943;SDS011;27636;52.610;13.244;2022-12-29T21:19:12;2.27;;;1.13;;
41943;SDS011;27636;52.610;13.244;2022-12-29T21:24:16;2.25;;;0.90;;
41943;SDS011;27636;52.610;13.244;2022-12-29T21:29:22;2.87;;;1.17;;
41943;SDS011;27636;52.610;13.244;2022-12-29T21:34:25;3.20;;;1.30;;
41943;SDS011;27636;52.610;13.244;2022-12-29T21:39:29;8.35;;;1.15;;
41943;SDS011;27636;52.610;13.244;2022-12-29T21:44:33;2.83;;;1.10;;
41943;SDS011;27636;52.610;13.244;2022-12-29T21:49:55;5.40;;;1.05;;
41943;SDS011;27636;52.610;13.244;2022-12-29T21:54:58;2.85;;;0.98;;
41943;SDS011;27636;52.610;13.244;2022-12-29T22:00:03;6.25;;;0.90;;
41943;SDS011;27636;52.610;13.244;2022-12-29T22:05:26;2.80;;;0.90;;
41943;SDS011;27636;52.610;13.244;2022-12-29T22:10:48;4.22;;;0.98;;
41943;SDS011;27636;52.610;13.244;2022-12-29T22:16:12;3.47;;;1.20;;
41943;SDS011;27636;52.610;13.244;2022-12-29T22:21:16;3.95;;;0.98;;
41943;SDS011;27636;52.610;13.244;2022-12-29T22:26:20;1.38;;;0.88;;
41943;SDS011;27636;52.610;13.244;2022-12-29T22:31:26;1.27;;;0.77;;
41943;SDS011;27636;52.610;13.244;2022-12-29T22:36:31;2.08;;;0.75;;
41943;SDS011;27636;52.610;13.244;2022-12-29T22:41:35;6.60;;;1.73;;
41943;SDS011;27636;52.610;13.244;2022-12-29T22:46:39;3.75;;;1.10;;
41943;SDS011;27636;52.610;13.244;2022-12-29T22:51:43;9.32;;;1.33;;
41943;SDS011;27636;52.610;13.244;2022-12-29T22:56:46;4.28;;;1.27;;
41943;SDS011;27636;52.610;13.244;2022-12-29T23:01:51;1.55;;;0.82;;
41943;SDS011;27636;52.610;13.244;2022-12-29T23:06:54;3.30;;;0.77;;
41943;SDS011;27636;52.610;13.244;2022-12-29T23:11:57;4.25;;;0.90;;
41943;SDS011;27636;52.610;13.244;2022-12-29T23:17:02;1.23;;;0.80;;
41943;SDS011;27636;52.610;13.244;2022-12-29T23:22:05;1.07;;;0.80;;
41943;SDS011;27636;52.610;13.244;2022-12-29T23:27:08;1.98;;;0.93;;
41943;SDS011;27636;52.610;13.244;2022-12-29T23:32:13;3.10;;;0.82;;
41943;SDS011;27636;52.610;13.244;2022-12-29T23:37:17;4.45;;;0.98;;
41943;SDS011;27636;52.610;13.244;2022-12-29T23:42:20;1.60;;;0.82;;
41943;SDS011;27636;52.610;13.244;2022-12-29T23:47:24;2.38;;;0.82;;
41943;SDS011;27636;52.610;13.244;2022-12-29T23:52:28;2.35;;;0.90;;
41943;SDS011;27636;52.610;13.244;2022-12-29T23:57:31;3.13;;;0.90;;
